Terminal Aerodrome Forecast
Issued by NWS Billings, MT

Home | Current Version | Previous Version | Text Only | Print | Product List | Glossary Off
Versions: 1 2 3 4 5 6 7 8 9 10 11 12 13 14

000
FTUS45 KBYZ 211736
TAFMLS
TAF
KMLS 211736Z 2118/2218 11018KT P6SM OVC025
     FM220000 12018KT P6SM SCT020
     FM220600 13012KT P6SM SCT090=

USA.gov is the U.S. government's official web portal to all federal, state and local government web resources and services.